BOBS weather

Bobs
Bradford, Arkansas, United States

Public forecast

Using degrees Fahrenheit for public forecast. Weather courtesy of forecast.io.

METAR (pilot weather report)

Closest report is Searcy Municipal Airport, 18.0 nm (33.4 km) SW. Retrieved 2019/07/21 21:56 UTC (28 minutes ago):

KSRC 212156Z AUTO 19008KT 10SM CLR 34/26 A2991 RMK AO2 SLP129 T03390261

TAF (pilot weather forecast)

Forecast is more than 6 hours old.

Closest forecast is Little Rock Air Force Base, 44.9 nm (83.1 km) SW. Retrieved 2019/07/21 15:06 UTC (7 hours ago):

TAF TAF KLRF 211500Z 2115/2221 VRB06KT 9999 FEW025 QNH2996INS BECMG 2117/2118 24009KT 9999 SCT035 QNH2990INS BECMG 2215/2216 25010G15KT 9999 SCT070 QNH2983INS TEMPO 2220/2221 30012G18KT 8000 -TSRA BKN040CB TX36/2121Z TN25/2211Z